createdAt,value
2022-11-17T00:02:03.337Z,10.49
2022-11-17T00:04:29.778Z,10.50
2022-11-17T00:06:59.794Z,10.50
2022-11-17T00:09:26.715Z,10.48
2022-11-17T00:12:12.179Z,10.49
2022-11-17T00:14:41.702Z,10.50
2022-11-17T00:17:13.132Z,10.49
2022-11-17T00:19:59.054Z,10.60
2022-11-17T00:22:26.012Z,10.61
2022-11-17T00:24:52.615Z,10.61
2022-11-17T00:27:21.174Z,10.71
2022-11-17T00:29:48.121Z,10.77
2022-11-17T00:32:37.558Z,10.74
2022-11-17T00:35:05.825Z,10.74
2022-11-17T00:38:00.152Z,10.79
2022-11-17T00:40:27.096Z,10.84
2022-11-17T00:42:53.662Z,10.85
2022-11-17T00:45:20.160Z,10.79
2022-11-17T00:50:31.691Z,10.74
2022-11-17T00:52:58.276Z,10.76
2022-11-17T00:55:24.797Z,10.64
2022-11-17T01:01:40.401Z,10.63
2022-11-17T01:04:07.442Z,10.69
2022-11-17T01:06:41.821Z,10.61
2022-11-17T01:09:22.263Z,10.63
2022-11-17T01:11:50.997Z,10.60
2022-11-17T01:14:23.639Z,10.60
2022-11-17T01:16:51.252Z,10.59
2022-11-17T01:19:18.736Z,10.49
2022-11-17T01:21:46.828Z,10.53
2022-11-17T01:24:16.221Z,10.55
2022-11-17T01:26:48.878Z,10.49
2022-11-17T01:29:19.645Z,10.48
2022-11-17T01:31:50.933Z,10.46
2022-11-17T01:34:20.166Z,10.45
2022-11-17T01:37:05.293Z,10.43
2022-11-17T01:39:32.800Z,10.42
2022-11-17T01:42:04.381Z,10.39
2022-11-17T01:44:53.109Z,10.36
2022-11-17T01:47:42.278Z,10.40
2022-11-17T01:50:32.428Z,10.39
2022-11-17T01:53:01.427Z,10.45
2022-11-17T01:55:36.751Z,10.42
2022-11-17T01:58:10.511Z,10.39
2022-11-17T02:00:37.164Z,10.29
2022-11-17T02:03:07.359Z,10.39
2022-11-17T02:05:43.431Z,10.34
2022-11-17T02:08:11.502Z,10.36
2022-11-17T02:10:40.056Z,10.34
2022-11-17T02:13:07.207Z,10.36
2022-11-17T02:15:34.283Z,10.34
2022-11-17T02:18:01.754Z,10.48
2022-11-17T02:20:52.982Z,10.46
2022-11-17T02:23:57.129Z,10.40
2022-11-17T02:26:37.244Z,10.39
2022-11-17T02:29:29.364Z,10.30
2022-11-17T02:32:04.916Z,10.29
2022-11-17T02:34:48.628Z,10.26
2022-11-17T02:37:23.584Z,10.32
2022-11-17T02:40:04.164Z,10.28
2022-11-17T02:42:59.012Z,10.26
2022-11-17T02:45:34.555Z,10.28
2022-11-17T02:48:04.178Z,10.28
2022-11-17T02:50:32.421Z,10.23
2022-11-17T02:52:59.273Z,10.26
2022-11-17T02:55:27.668Z,10.22
2022-11-17T02:57:54.103Z,10.19
2022-11-17T03:00:21.182Z,10.19
2022-11-17T03:02:59.802Z,10.25
2022-11-17T03:05:46.266Z,10.23
2022-11-17T03:08:16.016Z,10.25
2022-11-17T03:10:52.284Z,10.29
2022-11-17T03:13:29.428Z,10.39
2022-11-17T03:16:09.153Z,10.45
2022-11-17T03:18:54.238Z,10.50
2022-11-17T03:21:33.594Z,10.49
2022-11-17T03:24:05.793Z,10.48
2022-11-17T03:26:39.569Z,10.48
2022-11-17T03:29:14.036Z,10.48
2022-11-17T03:31:43.420Z,10.50
2022-11-17T03:34:15.057Z,10.49
2022-11-17T03:36:47.939Z,10.56
2022-11-17T03:39:24.383Z,10.55
2022-11-17T03:41:57.578Z,10.59
2022-11-17T03:44:26.774Z,10.60
2022-11-17T03:46:55.697Z,10.57
2022-11-17T03:49:33.443Z,10.60
2022-11-17T03:52:00.167Z,10.66
2022-11-17T03:54:27.068Z,10.67
2022-11-17T03:57:34.083Z,10.67
2022-11-17T04:00:05.039Z,10.61
2022-11-17T04:02:32.421Z,10.49
2022-11-17T04:05:08.017Z,10.39
2022-11-17T04:07:40.410Z,10.43
2022-11-17T04:10:12.399Z,10.40
2022-11-17T04:12:57.650Z,10.34
2022-11-17T04:15:42.989Z,10.36
2022-11-17T04:18:09.635Z,10.38
2022-11-17T04:20:36.164Z,10.29
2022-11-17T04:23:14.319Z,10.30
2022-11-17T04:26:05.439Z,10.40
2022-11-17T04:28:38.541Z,10.42
2022-11-17T04:31:12.764Z,10.43
2022-11-17T04:33:44.839Z,10.48
2022-11-17T04:36:13.245Z,10.43
2022-11-17T04:38:44.477Z,10.39
2022-11-17T04:41:33.864Z,10.39
2022-11-17T04:44:01.809Z,10.43
2022-11-17T04:46:29.869Z,10.49
2022-11-17T04:48:57.351Z,10.50
2022-11-17T04:51:24.757Z,10.53
2022-11-17T04:53:51.850Z,10.52
2022-11-17T04:56:19.847Z,10.60
2022-11-17T04:58:47.298Z,10.67
2022-11-17T05:01:14.552Z,10.69
2022-11-17T05:04:04.354Z,10.64
2022-11-17T05:06:35.203Z,10.70
2022-11-17T05:09:05.577Z,10.73
2022-11-17T05:11:50.952Z,10.80
2022-11-17T05:14:22.854Z,10.85
2022-11-17T05:17:09.503Z,10.94
2022-11-17T05:19:41.363Z,11.04
2022-11-17T05:22:28.184Z,11.00
2022-11-17T05:24:55.629Z,11.00
2022-11-17T05:27:23.868Z,10.85
2022-11-17T05:29:51.957Z,10.76
2022-11-17T05:32:18.679Z,10.57
2022-11-17T05:34:46.708Z,10.56
2022-11-17T05:37:13.479Z,10.53
2022-11-17T05:39:39.966Z,10.46
2022-11-17T05:42:06.524Z,10.46
2022-11-17T05:44:34.137Z,10.45
2022-11-17T05:47:00.777Z,10.42
2022-11-17T05:49:27.373Z,10.45
2022-11-17T05:51:54.595Z,10.40
2022-11-17T05:54:21.069Z,10.38
2022-11-17T05:56:53.933Z,10.33
2022-11-17T05:59:33.068Z,10.32
2022-11-17T06:02:01.316Z,10.33
2022-11-17T06:04:29.174Z,10.39
2022-11-17T06:06:59.623Z,10.29
2022-11-17T06:09:29.385Z,10.29
2022-11-17T06:11:58.604Z,10.29
2022-11-17T06:14:31.829Z,10.29
2022-11-17T06:17:03.981Z,10.29
2022-11-17T06:19:39.053Z,10.29
2022-11-17T06:22:14.034Z,10.26
2022-11-17T06:24:45.198Z,10.26
2022-11-17T06:27:18.697Z,10.28
2022-11-17T06:29:48.056Z,10.29
2022-11-17T06:32:18.070Z,10.30
2022-11-17T06:34:50.553Z,10.19
2022-11-17T06:37:21.732Z,10.11
2022-11-17T06:39:49.560Z,10.12
2022-11-17T06:42:16.343Z,10.15
2022-11-17T06:44:43.388Z,10.13
2022-11-17T06:47:09.936Z,10.21
2022-11-17T06:49:38.842Z,10.18
2022-11-17T06:52:05.328Z,10.34
2022-11-17T06:54:32.913Z,10.32
2022-11-17T06:56:59.451Z,10.28
2022-11-17T06:59:26.196Z,10.28
2022-11-17T07:01:52.825Z,10.33
2022-11-17T07:04:19.523Z,10.30
2022-11-17T07:06:52.911Z,10.33
2022-11-17T07:09:20.006Z,10.40
2022-11-17T07:11:46.610Z,10.46
2022-11-17T07:14:13.092Z,10.43
2022-11-17T07:16:41.704Z,10.46
2022-11-17T07:19:09.797Z,10.48
2022-11-17T07:21:37.298Z,10.48
2022-11-17T07:24:04.026Z,10.40
2022-11-17T07:26:33.524Z,10.40
2022-11-17T07:29:00.086Z,10.36
2022-11-17T07:33:45.084Z,10.39
2022-11-17T07:36:14.621Z,10.38
2022-11-17T07:38:49.092Z,10.40
2022-11-17T07:41:19.155Z,10.34
2022-11-17T07:43:48.142Z,10.36
2022-11-17T07:46:15.414Z,10.42
2022-11-17T07:48:44.603Z,10.43
2022-11-17T07:51:13.532Z,10.45
2022-11-17T07:53:42.513Z,10.43
2022-11-17T07:56:11.476Z,10.49
2022-11-17T07:58:38.617Z,10.60
2022-11-17T08:01:10.709Z,10.61
2022-11-17T08:03:37.459Z,10.81
2022-11-17T08:06:05.898Z,10.87
2022-11-17T08:08:34.047Z,10.88
2022-11-17T08:11:10.103Z,10.92
2022-11-17T08:13:37.987Z,11.02
2022-11-17T08:16:04.579Z,10.95
2022-11-17T08:18:35.401Z,10.97
2022-11-17T08:21:14.725Z,11.06
2022-11-17T08:23:48.703Z,11.07
2022-11-17T08:26:15.330Z,11.10
2022-11-17T08:28:42.090Z,11.11
2022-11-17T08:31:08.827Z,11.10
2022-11-17T08:33:38.873Z,11.15
2022-11-17T08:36:09.203Z,11.19
2022-11-17T08:38:36.641Z,11.17
2022-11-17T08:41:13.210Z,11.12
2022-11-17T08:43:39.768Z,11.11
2022-11-17T08:46:13.024Z,11.06
2022-11-17T08:48:40.347Z,11.04
2022-11-17T08:51:08.251Z,11.01
2022-11-17T08:53:35.187Z,11.07
2022-11-17T08:56:07.624Z,11.04
2022-11-17T08:58:45.225Z,11.07
2022-11-17T09:01:16.982Z,11.17
2022-11-17T09:03:46.693Z,11.15
2022-11-17T09:06:15.166Z,11.15
2022-11-17T09:08:56.147Z,11.21
2022-11-17T09:11:25.031Z,11.31
2022-11-17T09:13:52.616Z,11.41
2022-11-17T09:16:24.039Z,11.48
2022-11-17T09:18:57.956Z,11.53
2022-11-17T09:21:27.113Z,11.60
2022-11-17T09:23:54.340Z,11.76
2022-11-17T09:26:21.547Z,11.83
2022-11-17T09:28:49.149Z,12.00
2022-11-17T09:31:19.175Z,12.00
2022-11-17T09:33:52.458Z,12.11
2022-11-17T09:36:19.217Z,12.11
2022-11-17T09:38:46.917Z,12.18
2022-11-17T09:41:17.178Z,12.20
2022-11-17T09:44:14.882Z,12.20
2022-11-17T09:46:41.412Z,12.32
2022-11-17T09:49:14.614Z,12.34
2022-11-17T09:51:46.342Z,12.34
2022-11-17T09:54:27.225Z,12.47
2022-11-17T09:56:55.576Z,12.48
2022-11-17T09:59:28.304Z,12.52
2022-11-17T10:01:55.374Z,12.54
2022-11-17T10:04:23.356Z,12.59
2022-11-17T10:06:51.523Z,12.55
2022-11-17T10:09:43.258Z,12.61
2022-11-17T10:12:25.595Z,12.65
2022-11-17T10:14:54.640Z,12.69
2022-11-17T10:17:21.401Z,12.78
2022-11-17T10:19:48.607Z,12.79
2022-11-17T10:22:45.708Z,12.61
2022-11-17T10:25:39.272Z,12.68
2022-11-17T10:28:08.720Z,12.69
2022-11-17T10:30:35.925Z,12.71
2022-11-17T10:33:03.404Z,12.65
2022-11-17T10:35:32.659Z,12.69
2022-11-17T10:38:16.872Z,12.71
2022-11-17T10:40:46.192Z,12.68
2022-11-17T10:43:16.838Z,12.71
2022-11-17T10:45:45.354Z,12.71
2022-11-17T10:48:34.320Z,12.75
2022-11-17T10:51:19.661Z,12.75
2022-11-17T10:54:04.004Z,12.75
2022-11-17T10:56:33.513Z,12.80
2022-11-17T10:59:09.734Z,12.78
2022-11-17T11:01:38.842Z,12.78
2022-11-17T11:04:09.612Z,12.82
2022-11-17T11:06:36.247Z,12.85
2022-11-17T11:09:16.573Z,12.86
2022-11-17T11:11:51.667Z,12.85
2022-11-17T11:14:37.054Z,12.86
2022-11-17T11:17:13.027Z,12.85
2022-11-17T11:19:42.634Z,12.90
2022-11-17T11:22:32.923Z,12.88
2022-11-17T11:25:11.621Z,12.90
2022-11-17T11:27:47.449Z,12.90
2022-11-17T11:30:17.423Z,12.88
2022-11-17T11:32:52.981Z,12.86
2022-11-17T11:35:37.378Z,12.83
2022-11-17T11:38:38.325Z,12.80
2022-11-17T11:41:26.797Z,12.71
2022-11-17T11:44:02.949Z,12.69
2022-11-17T11:46:56.482Z,12.62
2022-11-17T11:49:28.879Z,12.69
2022-11-17T11:51:55.451Z,12.79
2022-11-17T11:54:33.168Z,12.80
2022-11-17T11:57:01.803Z,12.90
2022-11-17T11:59:48.385Z,12.90
2022-11-17T12:02:41.727Z,13.00
2022-11-17T12:05:32.733Z,13.00
2022-11-17T12:08:26.552Z,13.06
2022-11-17T12:11:26.449Z,13.13
2022-11-17T12:13:55.279Z,13.24
2022-11-17T12:16:35.014Z,13.50
2022-11-17T12:19:06.357Z,13.88
2022-11-17T12:21:57.864Z,13.94
2022-11-17T12:24:53.089Z,13.67
2022-11-17T12:27:34.939Z,13.59
2022-11-17T12:30:03.991Z,13.64
2022-11-17T12:32:48.786Z,13.57
2022-11-17T12:35:23.372Z,13.47
2022-11-17T12:38:11.507Z,13.41
2022-11-17T12:40:46.120Z,13.46
2022-11-17T12:43:15.814Z,13.43
2022-11-17T12:46:04.065Z,13.43
2022-11-17T12:48:39.242Z,13.50
2022-11-17T12:51:27.433Z,13.53
2022-11-17T12:54:12.892Z,13.48
2022-11-17T12:56:50.323Z,13.46
2022-11-17T12:59:31.669Z,13.50
2022-11-17T13:02:13.400Z,13.47
2022-11-17T13:07:33.665Z,13.41
2022-11-17T13:10:05.037Z,13.36
2022-11-17T13:15:23.221Z,13.33
2022-11-17T13:17:54.043Z,13.38
2022-11-17T13:20:28.766Z,13.44
2022-11-17T13:23:19.191Z,13.44
2022-11-17T13:25:45.956Z,13.41
2022-11-17T13:28:30.681Z,13.41
2022-11-17T13:33:40.559Z,13.48
2022-11-17T13:38:53.065Z,13.54
2022-11-17T13:44:04.205Z,13.71
2022-11-17T13:46:30.883Z,13.69
2022-11-17T13:48:57.745Z,13.75
2022-11-17T13:51:28.329Z,13.78
2022-11-17T13:54:11.852Z,13.75
2022-11-17T13:56:42.046Z,13.72
2022-11-17T14:02:20.785Z,13.67
2022-11-17T14:07:53.042Z,13.57
2022-11-17T14:10:24.285Z,13.54
2022-11-17T14:13:13.539Z,13.54
2022-11-17T14:15:42.544Z,13.53
2022-11-17T14:18:38.287Z,13.54
2022-11-17T14:21:11.757Z,13.48
2022-11-17T14:23:44.657Z,13.48
2022-11-17T14:26:20.666Z,13.48
2022-11-17T14:28:49.736Z,13.68
2022-11-17T14:31:17.019Z,14.06
2022-11-17T14:33:43.974Z,14.05
2022-11-17T14:36:14.742Z,13.82
2022-11-17T14:38:41.393Z,13.78
2022-11-17T14:41:08.279Z,13.75
2022-11-17T14:43:34.947Z,13.74
2022-11-17T14:46:01.633Z,13.67
2022-11-17T14:48:28.315Z,13.64
2022-11-17T14:50:59.806Z,13.58
2022-11-17T14:53:26.742Z,13.55
2022-11-17T14:55:53.508Z,13.50
2022-11-17T14:58:20.619Z,13.48
2022-11-17T15:00:47.349Z,13.48
2022-11-17T15:05:54.590Z,13.36
2022-11-17T15:11:03.309Z,13.34
2022-11-17T15:13:29.954Z,13.37
2022-11-17T15:16:03.863Z,13.34
2022-11-17T15:18:32.608Z,13.41
2022-11-17T15:23:55.146Z,13.33
2022-11-17T15:26:24.530Z,13.24
2022-11-17T15:28:51.193Z,13.19
2022-11-17T15:34:01.193Z,13.17
2022-11-17T15:36:27.699Z,13.12
2022-11-17T15:38:54.329Z,13.12
2022-11-17T15:41:21.388Z,13.12
2022-11-17T15:43:48.311Z,13.06
2022-11-17T15:46:16.882Z,13.00
2022-11-17T15:48:45.736Z,12.97
2022-11-17T15:51:16.626Z,12.90
2022-11-17T15:53:44.748Z,12.80
2022-11-17T15:56:31.343Z,12.76
2022-11-17T15:59:03.074Z,12.73
2022-11-17T16:01:33.683Z,12.64
2022-11-17T16:04:07.529Z,12.54
2022-11-17T16:09:18.407Z,12.42
2022-11-17T16:14:25.559Z,12.42
2022-11-17T16:16:52.602Z,12.42
2022-11-17T16:19:19.373Z,12.42
2022-11-17T16:21:46.183Z,12.37
2022-11-17T16:24:18.738Z,12.22
2022-11-17T16:26:45.930Z,12.22
2022-11-17T16:29:20.076Z,12.21
2022-11-17T16:31:46.830Z,12.13
2022-11-17T16:36:59.813Z,12.06
2022-11-17T16:39:26.317Z,12.04
2022-11-17T16:41:56.373Z,12.01
2022-11-17T16:44:22.983Z,12.03
2022-11-17T16:46:50.011Z,12.01
2022-11-17T16:49:26.589Z,12.04
2022-11-17T16:51:59.821Z,12.03
2022-11-17T16:54:26.423Z,12.01
2022-11-17T16:56:52.975Z,12.03
2022-11-17T16:59:19.765Z,11.97
2022-11-17T17:01:52.628Z,12.03
2022-11-17T17:04:19.597Z,12.04
2022-11-17T17:06:48.144Z,12.10
2022-11-17T17:09:15.744Z,12.06
2022-11-17T17:11:46.223Z,12.04
2022-11-17T17:14:21.964Z,11.96
2022-11-17T17:16:51.301Z,11.89
2022-11-17T17:19:18.639Z,11.86
2022-11-17T17:21:46.123Z,11.85
2022-11-17T17:24:14.631Z,11.79
2022-11-17T17:26:43.342Z,11.71
2022-11-17T17:29:11.413Z,11.69
2022-11-17T17:31:39.943Z,11.60
2022-11-17T17:34:07.690Z,11.65
2022-11-17T17:36:35.341Z,11.59
2022-11-17T17:39:05.777Z,11.55
2022-11-17T17:41:34.909Z,11.52
2022-11-17T17:44:06.647Z,11.53
2022-11-17T17:46:39.735Z,11.50
2022-11-17T17:49:07.383Z,11.50
2022-11-17T17:51:37.871Z,11.49
2022-11-17T17:54:04.710Z,11.38
2022-11-17T17:56:38.788Z,11.31
2022-11-17T17:59:05.419Z,11.28
2022-11-17T18:01:37.627Z,11.25
2022-11-17T18:04:05.163Z,11.21
2022-11-17T18:06:37.984Z,11.17
2022-11-17T18:09:10.678Z,11.18
2022-11-17T18:11:46.020Z,11.11
2022-11-17T18:14:13.360Z,11.07
2022-11-17T18:16:39.980Z,11.06
2022-11-17T18:19:09.206Z,10.98
2022-11-17T18:21:36.306Z,10.88
2022-11-17T18:24:03.607Z,10.88
2022-11-17T18:26:32.988Z,10.83
2022-11-17T18:29:02.280Z,10.84
2022-11-17T18:31:32.105Z,10.80
2022-11-17T18:34:02.765Z,10.67
2022-11-17T18:36:30.616Z,10.77
2022-11-17T18:38:58.797Z,10.76
2022-11-17T18:41:26.768Z,10.74
2022-11-17T18:43:55.244Z,10.74
2022-11-17T18:46:23.500Z,10.66
2022-11-17T18:48:52.034Z,10.69
2022-11-17T18:51:21.426Z,10.63
2022-11-17T18:53:53.278Z,10.69
2022-11-17T18:58:40.980Z,10.59
2022-11-17T19:01:16.126Z,10.60
2022-11-17T19:03:55.685Z,10.55
2022-11-17T19:11:53.596Z,10.61
2022-11-17T19:14:24.542Z,10.55
2022-11-17T19:16:51.060Z,10.56
2022-11-17T19:19:39.704Z,10.48
2022-11-17T19:22:06.366Z,10.49
2022-11-17T19:24:33.118Z,10.40
2022-11-17T19:26:59.888Z,10.48
2022-11-17T19:29:28.923Z,10.40
2022-11-17T19:31:56.028Z,10.38
2022-11-17T19:34:22.660Z,10.36
2022-11-17T19:36:49.432Z,10.38
2022-11-17T19:39:17.236Z,10.29
2022-11-17T19:41:45.408Z,10.28
2022-11-17T19:44:12.431Z,10.29
2022-11-17T19:46:39.107Z,10.32
2022-11-17T19:49:06.406Z,10.34
2022-11-17T19:59:37.498Z,10.49
2022-11-17T20:02:04.038Z,10.49
2022-11-17T20:04:30.536Z,10.48
2022-11-17T20:17:40.451Z,10.46
2022-11-17T20:39:02.424Z,10.32
2022-11-17T20:41:29.798Z,10.30
2022-11-17T20:43:58.467Z,10.26
2022-11-17T20:46:25.713Z,10.29
2022-11-17T20:48:52.337Z,10.28
2022-11-17T20:51:21.487Z,10.19
2022-11-17T20:53:48.990Z,10.21
2022-11-17T20:56:16.710Z,10.18
2022-11-17T20:58:43.334Z,10.09
2022-11-17T21:01:19.292Z,10.08
2022-11-17T21:03:46.336Z,10.06
2022-11-17T21:06:16.556Z,10.02
2022-11-17T21:08:44.697Z,9.98
2022-11-17T21:11:41.099Z,9.95
2022-11-17T21:14:12.115Z,9.91
2022-11-17T21:16:50.061Z,9.82
2022-11-17T21:19:17.506Z,9.78
2022-11-17T21:21:46.095Z,9.64
2022-11-17T21:24:14.534Z,9.55
2022-11-17T21:26:41.246Z,9.50
2022-11-17T21:29:07.785Z,9.47
2022-11-17T21:31:37.541Z,9.46
2022-11-17T21:34:06.523Z,9.40
2022-11-17T21:36:36.163Z,9.37
2022-11-17T21:39:03.201Z,9.36
2022-11-17T21:41:32.385Z,9.36
2022-11-17T21:44:01.272Z,9.27
2022-11-17T21:57:11.956Z,9.19
2022-11-17T21:59:39.198Z,9.13
2022-11-17T22:02:05.965Z,9.12
2022-11-17T22:04:32.823Z,9.05
2022-11-17T22:06:59.348Z,8.91
2022-11-17T22:09:25.916Z,8.91
2022-11-17T22:11:55.715Z,8.86
2022-11-17T22:14:22.904Z,8.95
2022-11-17T22:16:52.117Z,9.01
2022-11-17T22:19:20.537Z,9.06
2022-11-17T22:21:49.303Z,9.03
2022-11-17T22:24:16.100Z,9.16
2022-11-17T22:26:43.650Z,9.18
2022-11-17T22:29:21.153Z,9.23
2022-11-17T22:31:48.856Z,9.30
2022-11-17T22:34:18.116Z,9.22
2022-11-17T22:36:44.818Z,9.26
2022-11-17T22:39:11.381Z,9.33
2022-11-17T22:41:38.051Z,9.36
2022-11-17T22:44:06.070Z,9.34
2022-11-17T22:46:33.637Z,9.36
2022-11-17T22:49:00.159Z,9.39
2022-11-17T22:51:45.225Z,9.37
2022-11-17T22:54:11.797Z,9.33
2022-11-17T22:56:38.344Z,9.37
2022-11-17T22:59:08.116Z,9.40
2022-11-17T23:01:34.667Z,9.47
2022-11-17T23:04:01.347Z,9.46
2022-11-17T23:06:27.963Z,9.46
2022-11-17T23:08:55.658Z,9.51
2022-11-17T23:11:36.557Z,9.51
2022-11-17T23:14:06.112Z,9.57
2022-11-17T23:16:33.284Z,9.54
2022-11-17T23:18:59.983Z,9.54
2022-11-17T23:21:26.719Z,9.53
2022-11-17T23:23:53.254Z,9.53
2022-11-17T23:26:19.871Z,9.50
2022-11-17T23:28:46.396Z,9.54
2022-11-17T23:31:19.762Z,9.55
2022-11-17T23:33:47.845Z,9.58
2022-11-17T23:36:19.760Z,9.63
2022-11-17T23:38:47.660Z,9.65
2022-11-17T23:41:15.021Z,9.65
2022-11-17T23:43:41.902Z,9.70
2022-11-17T23:46:13.982Z,9.67
2022-11-17T23:48:41.262Z,9.70
2022-11-17T23:51:13.522Z,9.65
2022-11-17T23:53:40.632Z,9.67
2022-11-17T23:56:10.846Z,9.65
2022-11-17T23:58:37.796Z,9.71
